.
WxDataArchive / Data Records for 2014-05-25
2014-05-24 May 2014 2014-05-26

Data Records for Sunday, 25 May 2014

Time	Temp	Chill	HIndex	Humid	Dewpt	 Wind 	HiWind	WindDir	Rain 	Barom
-----	----	-----	------	-----	-----	------	------	-------	-----	-----
00:00	57.8	57.8	57.8	76	50.3	0	0	---	0.00	30.123 
00:05	57.6	57.6	57.6	77	50.4	0	0	---	0.00	30.123 
00:10	57.5	57.5	57.5	77	50.3	0	0	---	0.00	30.123 
00:15	57.3	57.3	57.3	78	50.5	0	0	---	0.00	30.124 
00:20	57.2	57.2	57.2	78	50.4	0	0	---	0.00	30.124 
00:25	57.0	57.0	57.0	79	50.5	0	0	---	0.00	30.124 
00:30	56.9	56.9	56.9	79	50.5	0	0	---	0.00	30.122 
00:35	56.9	56.9	56.9	80	50.8	0	0	---	0.00	30.122 
00:40	56.7	56.7	56.7	80	50.6	0	0	---	0.00	30.122 
00:45	56.7	56.7	56.7	81	50.9	0	0	---	0.00	30.119 
00:50	56.6	56.6	56.6	81	50.8	0	0	---	0.00	30.119 
00:55	56.5	56.5	56.5	82	51.1	0	0	---	0.00	30.119 
01:00	56.5	56.5	56.5	82	51.1	0	0	---	0.00	30.120 
01:05	56.5	56.5	56.5	82	51.1	0	0	---	0.00	30.120 
01:10	56.3	56.3	56.3	82	50.9	0	0	---	0.00	30.120 
01:15	56.3	56.3	56.3	83	51.2	0	0	---	0.00	30.121 
01:20	56.2	56.2	56.2	83	51.1	0	0	---	0.00	30.121 
01:25	56.0	56.0	56.0	83	50.9	0	0	---	0.00	30.121 
01:30	55.9	55.9	55.9	83	50.8	0	0	---	0.00	30.122 
01:35	55.7	55.7	55.7	83	50.6	0	0	---	0.00	30.122 
01:40	55.7	55.7	55.7	83	50.6	0	0	---	0.00	30.122 
01:45	55.6	55.6	55.6	83	50.5	0	0	---	0.00	30.121 
01:50	55.6	55.6	55.6	84	50.8	0	0	---	0.00	30.121 
01:55	55.4	55.4	55.4	84	50.6	0	0	---	0.00	30.121 
02:00	55.4	55.4	55.4	84	50.6	0	0	---	0.00	30.122 
02:05	55.3	55.3	55.3	84	50.5	0	0	---	0.00	30.122 
02:10	55.3	55.3	55.3	84	50.5	0	0	---	0.00	30.122 
02:15	55.1	55.1	55.1	84	50.4	0	0	---	0.00	30.120 
02:20	55.1	55.1	55.1	84	50.4	0	0	---	0.00	30.120 
02:25	55.0	55.0	55.0	84	50.3	0	0	---	0.00	30.120 
02:30	55.0	55.0	55.0	84	50.3	0	0	---	0.00	30.121 
02:35	54.8	54.8	54.8	85	50.4	0	0	---	0.00	30.121 
02:40	54.8	54.8	54.8	85	50.4	0	0	---	0.00	30.121 
02:45	54.7	54.7	54.7	85	50.3	0	0	---	0.00	30.121 
02:50	54.7	54.7	54.7	85	50.3	0	0	---	0.00	30.121 
02:55	54.7	54.7	54.7	85	50.3	0	0	---	0.00	30.121 
03:00	54.5	54.5	54.5	86	50.4	0	0	---	0.00	30.121 
03:05	54.5	54.5	54.5	86	50.4	0	0	---	0.00	30.121 
03:10	54.4	54.4	54.4	86	50.3	0	0	---	0.00	30.121 
03:15	54.4	54.4	54.4	86	50.3	0	0	---	0.00	30.121 
03:20	54.2	54.2	54.2	86	50.1	0	0	---	0.00	30.121 
03:25	54.1	54.1	54.1	86	50.0	0	0	---	0.00	30.121 
03:30	54.1	54.1	54.1	86	50.0	0	0	---	0.00	30.120 
03:35	53.9	53.9	53.9	86	49.8	0	0	---	0.00	30.120 
03:40	53.8	53.8	53.8	86	49.7	0	0	---	0.00	30.120 
03:45	53.6	53.6	53.6	86	49.5	0	0	---	0.00	30.118 
03:50	53.6	53.6	53.6	87	49.8	0	0	---	0.00	30.118 
03:55	53.5	53.5	53.5	87	49.7	0	0	---	0.00	30.118 
04:00	53.5	53.5	53.5	87	49.7	0	0	---	0.00	30.116 
04:05	53.3	53.3	53.3	88	49.8	0	0	---	0.00	30.116 
04:10	53.3	53.3	53.3	88	49.8	0	0	---	0.00	30.116 
04:15	53.2	53.2	53.2	88	49.7	0	0	---	0.00	30.113 
04:20	53.1	53.1	53.1	88	49.6	0	0	---	0.00	30.113 
04:25	53.1	53.1	53.1	88	49.6	0	0	---	0.00	30.113 
04:30	52.9	52.9	52.9	88	49.4	0	0	---	0.00	30.116 
04:35	52.9	52.9	52.9	88	49.4	0	0	---	0.00	30.116 
04:40	52.9	52.9	52.9	89	49.7	0	0	---	0.00	30.116 
04:45	52.9	52.9	52.9	89	49.7	0	0	---	0.00	30.118 
04:50	52.8	52.8	52.8	89	49.6	0	0	---	0.00	30.118 
04:55	52.8	52.8	52.8	89	49.6	0	0	---	0.00	30.118 
05:00	52.8	52.8	52.8	89	49.6	0	0	---	0.00	30.118 
05:05	52.8	52.8	52.8	89	49.6	0	0	---	0.00	30.118 
05:10	52.8	52.8	52.8	90	49.9	0	0	---	0.00	30.118 
05:15	52.6	52.6	52.6	90	49.7	0	0	---	0.00	30.120 
05:20	52.5	52.5	52.5	90	49.7	0	0	---	0.00	30.120 
05:25	52.5	52.5	52.5	90	49.7	0	0	---	0.00	30.120 
05:30	52.5	52.5	52.5	90	49.7	0	0	---	0.00	30.123 
05:35	52.3	52.3	52.3	91	49.8	0	0	---	0.00	30.123 
05:40	52.3	52.3	52.3	91	49.8	0	0	---	0.00	30.123 
05:45	52.3	52.3	52.3	91	49.8	0	0	---	0.00	30.127 
05:50	52.3	52.3	52.3	91	49.8	0	0	---	0.00	30.127 
05:55	52.2	52.2	52.2	91	49.7	0	0	---	0.00	30.127 
06:00	52.2	52.2	52.2	91	49.7	0	0	---	0.00	30.133 
06:05	52.0	52.0	52.0	91	49.5	0	0	---	0.00	30.133 
06:10	51.9	51.9	51.9	91	49.4	0	0	---	0.00	30.133 
06:15	51.9	51.9	51.9	91	49.4	0	0	---	0.00	30.139 
06:20	51.9	51.9	51.9	91	49.4	0	0	---	0.00	30.139 
06:25	51.9	51.9	51.9	92	49.6	0	0	---	0.00	30.139 
06:30	52.0	52.0	52.0	92	49.7	0	0	---	0.00	30.139 
06:35	52.0	52.0	52.0	92	49.7	0	0	---	0.00	30.139 
06:40	52.0	52.0	52.0	92	49.7	0	0	---	0.00	30.139 
06:45	52.0	52.0	52.0	92	49.7	0	0	---	0.00	30.141 
06:50	52.2	52.2	52.2	92	49.9	0	0	---	0.00	30.141 
06:55	52.3	52.3	52.3	92	50.0	0	0	---	0.00	30.141 
07:00	52.5	52.5	52.5	92	50.2	0	0	---	0.00	30.144 
07:05	52.8	52.8	52.8	92	50.5	0	0	---	0.00	30.144 
07:10	52.9	52.9	52.9	92	50.6	0	0	---	0.00	30.144 
07:15	53.2	53.2	53.2	92	50.9	0	0	---	0.00	30.148 
07:20	53.8	53.8	53.8	93	51.8	0	0	---	0.00	30.148 
07:25	54.5	54.5	54.5	93	52.5	0	1	315	0.00	30.148 
07:30	55.1	55.1	55.1	93	53.1	0	1	---	0.00	30.144 
07:35	55.9	55.9	55.9	91	53.3	0	1	315	0.00	30.144 
07:40	57.0	57.0	57.0	86	52.9	0	0	---	0.00	30.144 
07:45	58.1	58.1	58.1	82	52.6	0	0	---	0.00	30.144 
07:50	58.9	58.9	58.9	80	52.7	0	0	---	0.00	30.144 
07:55	59.6	59.6	59.6	79	53.1	0	0	---	0.00	30.144 
08:00	60.5	60.5	60.5	75	52.5	0	1	315	0.00	30.144 
08:05	61.5	61.5	61.5	72	52.4	0	1	315	0.00	30.144 
08:10	62.6	62.6	62.6	69	52.3	0	1	315	0.00	30.144 
08:15	63.5	63.5	63.5	66	51.9	0	1	315	0.00	30.148 
08:20	64.3	64.3	64.3	66	52.7	0	1	315	0.00	30.148 
08:25	65.2	65.2	65.2	65	53.1	0	1	315	0.00	30.148 
08:30	66.1	66.1	66.1	63	53.1	0	1	315	0.00	30.147 
08:35	66.6	66.6	66.6	60	52.3	0	1	315	0.00	30.147 
08:40	67.4	67.4	67.4	59	52.6	0	1	315	0.00	30.147 
08:45	68.3	68.3	68.3	58	52.9	0	1	315	0.00	30.145 
08:50	69.1	69.1	69.1	56	52.7	0	1	315	0.00	30.145 
08:55	69.8	69.8	69.8	56	53.4	0	0	---	0.00	30.145 
09:00	70.3	70.3	70.3	54	52.9	0	1	315	0.00	30.142 
09:05	70.4	70.4	70.4	54	52.9	0	1	315	0.00	30.142 
09:10	70.8	70.8	70.8	54	53.3	0	1	315	0.00	30.142 
09:15	71.3	71.3	71.3	52	52.8	0	1	315	0.00	30.146 
09:20	71.6	71.6	71.6	51	52.5	0	1	315	0.00	30.146 
09:25	72.0	72.0	72.0	50	52.3	0	1	315	0.00	30.146 
09:30	72.3	72.3	72.3	52	53.7	0	2	0	0.00	30.142 
09:35	72.5	72.5	72.5	51	53.3	0	2	0	0.00	30.142 
09:40	73.0	73.0	73.0	50	53.2	0	2	0	0.00	30.142 
09:45	73.3	73.3	73.3	49	53.0	0	2	0	0.00	30.145 
09:50	73.5	73.5	73.5	49	53.2	0	3	0	0.00	30.145 
09:55	73.5	73.5	73.5	49	53.2	0	2	0	0.00	30.145 
10:00	73.9	73.9	73.9	48	53.0	1	3	0	0.00	30.143 
10:05	74.2	74.2	74.2	47	52.7	0	2	68	0.00	30.143 
10:10	74.6	74.6	74.6	48	53.6	0	3	68	0.00	30.143 
10:15	75.1	75.1	77.7	47	53.5	0	1	68	0.00	30.145 
10:20	75.4	75.4	77.7	44	52.0	1	3	68	0.00	30.145 
10:25	75.4	75.4	77.8	47	53.7	0	1	68	0.00	30.145 
10:30	75.1	75.1	77.6	45	52.3	0	2	68	0.00	30.148 
10:35	75.1	75.1	77.7	47	53.5	0	1	68	0.00	30.148 
10:40	75.4	75.4	77.7	45	52.6	1	3	68	0.00	30.148 
10:45	75.8	75.8	77.9	44	52.3	1	3	68	0.00	30.148 
10:50	76.0	76.0	77.9	43	51.9	0	2	68	0.00	30.148 
10:55	76.1	76.1	78.0	43	52.0	1	2	68	0.00	30.148 
11:00	76.5	76.5	78.2	44	52.9	1	3	68	0.00	30.148 
11:05	76.5	76.5	78.1	43	52.3	0	2	68	0.00	30.148 
11:10	77.0	77.0	78.5	46	54.6	0	3	68	0.00	30.148 
11:15	77.0	77.0	78.3	42	52.1	0	1	68	0.00	30.148 
11:20	77.0	77.0	78.1	38	49.4	0	3	68	0.00	30.148 
11:25	77.4	77.4	78.5	41	51.8	0	2	68	0.00	30.148 
11:30	77.4	77.4	78.6	45	54.4	0	1	68	0.00	30.147 
11:35	77.7	77.7	78.4	37	49.3	1	5	90	0.00	30.147 
11:40	77.9	77.9	78.4	36	48.8	0	2	90	0.00	30.147 
11:45	78.3	78.3	78.8	38	50.6	0	2	90	0.00	30.146 
11:50	78.6	78.6	79.0	39	51.5	0	2	90	0.00	30.146 
11:55	78.6	78.6	78.8	36	49.4	0	1	90	0.00	30.146 
12:00	78.1	78.1	78.5	35	48.2	1	2	90	0.00	30.143 
12:05	78.3	78.3	78.7	37	49.9	1	3	90	0.00	30.143 
12:10	78.8	78.8	79.0	37	50.3	0	1	90	0.00	30.143 
12:15	78.8	78.8	79.2	40	52.4	0	1	90	0.00	30.139 
12:20	78.6	78.6	78.9	38	50.8	0	1	90	0.00	30.139 
12:25	78.6	78.6	78.9	38	50.8	0	2	90	0.00	30.139 
12:30	78.1	78.1	78.6	37	49.7	0	2	90	0.00	30.135 
12:35	77.4	77.4	78.4	39	50.5	0	2	90	0.00	30.135 
12:40	77.2	77.2	78.4	41	51.7	0	1	90	0.00	30.135 
12:45	77.4	77.4	78.3	37	49.1	0	2	90	0.00	30.131 
12:50	77.6	77.6	78.3	36	48.5	1	3	90	0.00	30.131 
12:55	78.1	78.1	78.6	37	49.7	0	3	90	0.00	30.131 
13:00	78.5	78.5	78.8	37	50.0	0	1	90	0.00	30.124 
13:05	78.6	78.6	78.7	34	47.9	1	4	90	0.00	30.124 
13:10	78.6	78.6	78.8	36	49.4	1	4	90	0.00	30.124 
13:15	78.3	78.3	78.6	36	49.1	1	4	315	0.00	30.123 
13:20	78.1	78.1	78.5	36	48.9	0	2	338	0.00	30.123 
13:25	78.6	78.6	78.8	36	49.4	1	3	90	0.00	30.123 
13:30	79.0	79.0	78.8	33	47.4	1	3	90	0.00	30.119 
13:35	79.4	79.4	79.2	35	49.3	0	2	90	0.00	30.119 
13:40	79.8	79.8	79.2	32	47.3	0	1	90	0.00	30.119 
13:45	79.6	79.6	79.5	38	51.7	0	1	90	0.00	30.113 
13:50	79.2	79.2	79.1	35	49.2	0	3	90	0.00	30.113 
13:55	79.6	79.6	79.4	36	50.3	0	2	90	0.00	30.113 
14:00	80.1	80.1	79.5	33	48.4	1	3	90	0.00	30.108 
14:05	80.1	80.1	79.7	36	50.7	1	4	90	0.00	30.108 
14:10	79.8	79.8	79.4	35	49.7	1	3	270	0.00	30.108 
14:15	79.4	79.4	79.1	34	48.6	0	3	270	0.00	30.105 
14:20	78.8	78.8	78.8	35	48.8	0	3	270	0.00	30.105 
14:25	79.2	79.2	79.1	36	49.9	0	2	270	0.00	30.105 
14:30	79.8	79.8	79.4	35	49.7	1	4	90	0.00	30.102 
14:35	80.1	80.1	79.5	34	49.2	0	2	90	0.00	30.102 
14:40	80.3	80.3	79.7	35	50.1	0	2	90	0.00	30.102 
14:45	80.5	80.5	79.8	34	49.5	1	4	90	0.00	30.097 
14:50	80.7	80.7	79.8	32	48.1	2	5	90	0.00	30.097 
14:55	80.9	80.9	80.2	36	51.4	0	2	90	0.00	30.097 
15:00	80.9	80.9	79.7	29	45.6	0	2	90	0.00	30.094 
15:05	81.2	81.2	80.3	35	50.9	0	1	90	0.00	30.094 
15:10	81.4	81.4	80.1	31	47.8	1	5	90	0.00	30.094 
15:15	81.4	81.4	80.4	34	50.3	0	2	112	0.00	30.093 
15:20	81.2	81.2	80.0	31	47.7	1	2	112	0.00	30.093 
15:25	81.1	81.1	80.0	32	48.4	0	2	112	0.00	30.093 
15:30	81.4	81.4	80.4	34	50.3	0	1	112	0.00	30.094 
15:35	81.4	81.4	80.1	31	47.8	0	3	112	0.00	30.094 
15:40	81.4	81.4	80.0	29	46.1	0	1	112	0.00	30.094 
15:45	81.8	81.8	80.5	32	49.0	0	1	112	0.00	30.087 
15:50	82.2	82.2	80.5	29	46.8	0	2	112	0.00	30.087 
15:55	82.4	82.4	80.9	32	49.5	0	2	112	0.00	30.087 
16:00	82.4	82.4	80.8	30	47.8	1	4	112	0.00	30.084 
16:05	82.6	82.6	80.9	30	48.0	1	4	112	0.00	30.084 
16:10	82.4	82.4	81.0	33	50.4	0	2	112	0.00	30.084 
16:15	82.8	82.8	81.3	33	50.7	0	2	112	0.00	30.080 
16:20	82.8	82.8	81.2	31	49.0	1	3	112	0.00	30.080 
16:25	82.8	82.8	81.0	29	47.3	0	1	112	0.00	30.080 
16:30	82.8	82.8	80.9	28	46.3	0	1	112	0.00	30.073 
16:35	82.4	82.4	80.9	32	49.5	1	5	90	0.00	30.073 
16:40	82.0	82.0	80.6	31	48.4	1	4	90	0.00	30.073 
16:45	82.2	82.2	80.6	30	47.7	1	3	90	0.00	30.073 
16:50	82.2	82.2	80.6	30	47.7	0	3	90	0.00	30.073 
16:55	82.2	82.2	80.7	31	48.5	0	2	90	0.00	30.073 
17:00	82.0	82.0	80.6	31	48.4	1	3	90	0.00	30.070 
17:05	82.2	82.2	80.8	32	49.4	0	1	90	0.00	30.070 
17:10	81.8	81.8	80.3	30	47.3	0	2	90	0.00	30.070 
17:15	82.0	82.0	80.9	35	51.6	0	2	90	0.00	30.069 
17:20	82.0	82.0	80.6	31	48.4	1	3	90	0.00	30.069 
17:25	82.0	82.0	80.7	32	49.2	0	2	90	0.00	30.069 
17:30	82.2	82.2	80.8	32	49.4	0	1	90	0.00	30.059 
17:35	82.4	82.4	80.7	29	46.9	0	2	90	0.00	30.059 
17:40	82.6	82.6	80.9	30	48.0	0	1	90	0.00	30.059 
17:45	82.6	82.6	80.8	29	47.1	0	2	90	0.00	30.058 
17:50	82.8	82.8	81.1	30	48.2	0	2	90	0.00	30.058 
17:55	82.6	82.6	80.8	28	46.2	0	1	90	0.00	30.058 
18:00	82.4	82.4	80.8	30	47.8	0	1	90	0.00	30.057 
18:05	82.0	82.0	80.3	28	45.7	0	1	90	0.00	30.057 
18:10	82.0	82.0	80.6	31	48.4	0	1	90	0.00	30.057 
18:15	81.6	81.6	80.3	31	48.0	0	3	90	0.00	30.053 
18:20	81.4	81.4	80.1	30	47.0	0	3	90	0.00	30.053 
18:25	81.1	81.1	79.7	28	44.9	0	1	90	0.00	30.053 
18:30	80.7	80.7	79.5	29	45.5	0	1	90	0.00	30.048 
18:35	80.5	80.5	79.6	31	47.1	1	4	90	0.00	30.048 
18:40	80.3	80.3	79.4	31	46.9	0	1	90	0.00	30.048 
18:45	80.1	80.1	79.3	31	46.7	0	2	90	0.00	30.042 
18:50	79.9	79.9	79.1	30	45.7	0	2	90	0.00	30.042 
18:55	79.9	79.9	79.1	30	45.7	0	2	90	0.00	30.042 
19:00	79.9	79.9	79.2	31	46.5	0	2	90	0.00	30.040 
19:05	79.9	79.9	79.2	31	46.5	0	1	90	0.00	30.040 
19:10	79.9	79.9	79.3	32	47.4	0	1	90	0.00	30.040 
19:15	79.8	79.8	79.3	34	48.9	0	2	90	0.00	30.029 
19:20	79.4	79.4	79.0	32	46.9	0	1	90	0.00	30.029 
19:25	79.4	79.4	78.8	30	45.2	0	1	90	0.00	30.029 
19:30	79.6	79.6	79.0	30	45.4	0	2	90	0.00	30.030 
19:35	79.6	79.6	79.0	31	46.3	0	0	---	0.00	30.030 
19:40	79.6	79.6	79.0	30	45.4	0	0	---	0.00	30.030 
19:45	79.6	79.6	79.0	31	46.3	0	0	---	0.00	30.027 
19:50	79.4	79.4	78.9	31	46.1	0	0	---	0.00	30.027 
19:55	79.2	79.2	78.9	33	47.6	0	0	---	0.00	30.027 
20:00	79.0	79.0	78.8	33	47.4	0	0	---	0.00	30.031 
20:05	78.8	78.8	78.6	31	45.6	0	1	90	0.00	30.031 
20:10	78.6	78.6	78.6	33	47.1	0	0	---	0.00	30.031 
20:15	78.3	78.3	78.5	33	46.8	0	0	---	0.00	30.028 
20:20	78.1	78.1	78.4	34	47.4	0	0	---	0.00	30.028 
20:25	77.7	77.7	78.3	35	47.8	0	0	---	0.00	30.028 
20:30	77.2	77.2	78.1	36	48.2	0	0	---	0.00	30.029 
20:35	76.8	76.8	78.0	37	48.5	0	0	---	0.00	30.029 
20:40	76.5	76.5	77.9	38	49.0	0	0	---	0.00	30.029 
20:45	76.0	76.0	77.8	40	49.9	0	0	---	0.00	30.030 
20:50	75.6	75.6	77.7	40	49.6	0	0	---	0.00	30.030 
20:55	75.1	75.1	77.6	41	49.8	0	0	---	0.00	30.030 
21:00	74.6	74.6	74.6	42	50.0	0	0	---	0.00	30.030 
21:05	73.9	73.9	73.9	43	50.0	0	0	---	0.00	30.030 
21:10	73.3	73.3	73.3	44	50.1	0	0	---	0.00	30.030 
21:15	72.7	72.7	72.7	46	50.7	0	0	---	0.00	30.027 
21:20	72.0	72.0	72.0	46	50.1	0	0	---	0.00	30.027 
21:25	71.5	71.5	71.5	46	49.6	0	0	---	0.00	30.027 
21:30	70.8	70.8	70.8	47	49.6	0	0	---	0.00	30.029 
21:35	70.3	70.3	70.3	48	49.7	0	0	---	0.00	30.029 
21:40	69.8	69.8	69.8	50	50.3	0	0	---	0.00	30.029 
21:45	69.3	69.3	69.3	51	50.4	0	0	---	0.00	30.033 
21:50	68.9	68.9	68.9	53	51.1	0	0	---	0.00	30.033 
21:55	68.6	68.6	68.6	54	51.3	0	0	---	0.00	30.033 
22:00	68.3	68.3	68.3	55	51.5	0	0	---	0.00	30.034 
22:05	67.8	67.8	67.8	57	52.0	0	0	---	0.00	30.034 
22:10	67.4	67.4	67.4	58	52.1	0	0	---	0.00	30.034 
22:15	67.1	67.1	67.1	58	51.8	0	0	---	0.00	30.034 
22:20	66.8	66.8	66.8	59	52.0	0	0	---	0.00	30.034 
22:25	66.4	66.4	66.4	61	52.5	0	0	---	0.00	30.034 
22:30	66.1	66.1	66.1	61	52.3	0	0	---	0.00	30.038 
22:35	65.8	65.8	65.8	62	52.4	0	0	---	0.00	30.038 
22:40	65.5	65.5	65.5	63	52.6	0	0	---	0.00	30.038 
22:45	65.2	65.2	65.2	63	52.3	0	0	---	0.00	30.041 
22:50	65.0	65.0	65.0	63	52.1	0	0	---	0.00	30.041 
22:55	64.7	64.7	64.7	65	52.7	0	1	90	0.00	30.041 
23:00	64.5	64.5	64.5	66	52.9	0	0	---	0.00	30.044 
23:05	64.2	64.2	64.2	66	52.6	0	0	---	0.00	30.044 
23:10	64.0	64.0	64.0	67	52.8	0	0	---	0.00	30.044 
23:15	63.9	63.9	63.9	68	53.1	0	0	---	0.00	30.042 
23:20	63.5	63.5	63.5	68	52.7	0	0	---	0.00	30.042 
23:25	63.4	63.4	63.4	67	52.2	0	0	---	0.00	30.042 
23:30	63.4	63.4	63.4	65	51.4	0	0	---	0.00	30.044 
23:35	63.5	63.5	63.5	65	51.5	0	0	---	0.00	30.044 
23:40	63.7	63.7	63.7	64	51.3	0	0	---	0.00	30.044 
23:45	63.9	63.9	63.9	63	51.1	0	0	---	0.00	30.041 
23:50	64.0	64.0	64.0	62	50.7	0	0	---	0.00	30.041 
23:55	64.3	64.3	64.3	61	50.6	0	0	---	0.00	30.041 

CoCoRaHS
IN-AL-39
A2 Web Hosting
Creative Commons License
GoDaddy
search engine by freefind advanced

loaded 2018-11-13 22:17:43 • last modified 2010-11-18 10:43:29
Privacy PolicyDisclaimer
• wx.awcolley.com is powered by PmWiki v.2002016 •
• all content (unless otherwise noted) © 2018 A W Colley